createdAt,value
2022-11-19T00:01:28.585Z,100.00
2022-11-19T00:03:56.225Z,100.00
2022-11-19T00:06:26.161Z,100.00
2022-11-19T00:08:54.058Z,100.00
2022-11-19T00:11:42.039Z,100.00
2022-11-19T00:14:10.414Z,100.00
2022-11-19T00:16:37.364Z,100.00
2022-11-19T00:19:05.009Z,100.00
2022-11-19T00:21:32.180Z,100.00
2022-11-19T00:23:59.406Z,100.00
2022-11-19T00:26:26.673Z,100.00
2022-11-19T00:28:55.023Z,100.00
2022-11-19T00:31:22.513Z,100.00
2022-11-19T00:33:54.524Z,100.00
2022-11-19T00:36:22.529Z,100.00
2022-11-19T00:38:49.560Z,100.00
2022-11-19T00:41:16.691Z,100.00
2022-11-19T00:43:50.290Z,100.00
2022-11-19T00:46:23.382Z,100.00
2022-11-19T00:48:52.339Z,100.00
2022-11-19T00:51:20.466Z,100.00
2022-11-19T00:53:47.692Z,100.00
2022-11-19T00:56:18.918Z,100.00
2022-11-19T00:58:46.564Z,100.00
2022-11-19T01:01:15.260Z,100.00
2022-11-19T01:03:45.662Z,100.00
2022-11-19T01:06:18.660Z,100.00
2022-11-19T01:08:47.697Z,100.00
2022-11-19T01:11:20.796Z,100.00
2022-11-19T01:13:48.610Z,100.00
2022-11-19T01:16:21.549Z,100.00
2022-11-19T01:18:50.247Z,100.00
2022-11-19T01:21:18.878Z,100.00
2022-11-19T01:23:46.308Z,100.00
2022-11-19T01:26:15.229Z,100.00
2022-11-19T01:28:43.035Z,100.00
2022-11-19T01:31:13.216Z,100.00
2022-11-19T01:33:40.557Z,100.00
2022-11-19T01:36:11.722Z,100.00
2022-11-19T01:38:38.658Z,100.00
2022-11-19T01:41:06.307Z,100.00
2022-11-19T01:43:46.582Z,100.00
2022-11-19T01:46:16.306Z,100.00
2022-11-19T01:49:08.590Z,100.00
2022-11-19T01:51:39.194Z,100.00
2022-11-19T01:54:28.586Z,100.00
2022-11-19T01:56:58.598Z,100.00
2022-11-19T01:59:27.384Z,100.00
2022-11-19T02:01:54.556Z,100.00
2022-11-19T02:04:22.075Z,100.00
2022-11-19T02:06:49.437Z,100.00
2022-11-19T02:09:16.721Z,100.00
2022-11-19T02:12:34.385Z,100.00
2022-11-19T02:15:27.377Z,100.00
2022-11-19T02:18:26.232Z,100.00
2022-11-19T02:21:14.160Z,100.00
2022-11-19T02:24:31.456Z,100.00
2022-11-19T02:27:37.862Z,100.00
2022-11-19T02:30:19.695Z,100.00
2022-11-19T02:33:06.598Z,100.00
2022-11-19T02:58:06.702Z,100.00
2022-11-19T03:01:07.043Z,100.00
2022-11-19T03:03:53.134Z,100.00
2022-11-19T03:06:26.771Z,100.00
2022-11-19T03:08:54.061Z,100.00
2022-11-19T03:11:31.029Z,100.00
2022-11-19T03:14:35.728Z,100.00
2022-11-19T03:17:16.560Z,100.00
2022-11-19T03:19:49.243Z,100.00
2022-11-19T03:22:22.401Z,100.00
2022-11-19T03:24:59.197Z,100.00
2022-11-19T03:27:42.553Z,100.00
2022-11-19T03:30:11.411Z,100.00
2022-11-19T03:32:48.617Z,100.00
2022-11-19T03:35:22.909Z,100.00
2022-11-19T03:37:54.568Z,100.00
2022-11-19T03:40:23.765Z,100.00
2022-11-19T03:42:54.702Z,100.00
2022-11-19T03:45:32.438Z,100.00
2022-11-19T03:48:04.056Z,100.00
2022-11-19T03:50:54.531Z,100.00
2022-11-19T03:53:22.538Z,100.00
2022-11-19T03:56:02.240Z,100.00
2022-11-19T03:58:29.951Z,100.00
2022-11-19T04:00:56.993Z,100.00
2022-11-19T04:03:24.051Z,100.00
2022-11-19T04:05:50.973Z,100.00
2022-11-19T04:08:17.988Z,100.00
2022-11-19T04:10:45.077Z,100.00
2022-11-19T04:13:12.213Z,100.00
2022-11-19T04:15:39.341Z,100.00
2022-11-19T04:18:06.377Z,100.00
2022-11-19T04:20:33.456Z,100.00
2022-11-19T04:23:00.702Z,100.00
2022-11-19T04:25:27.909Z,100.00
2022-11-19T04:27:55.019Z,100.00
2022-11-19T04:30:21.976Z,100.00
2022-11-19T04:32:48.906Z,100.00
2022-11-19T04:35:18.358Z,100.00
2022-11-19T04:37:45.617Z,100.00
2022-11-19T04:40:13.509Z,100.00
2022-11-19T04:42:40.801Z,100.00
2022-11-19T04:45:08.947Z,100.00
2022-11-19T04:47:35.980Z,100.00
2022-11-19T04:50:03.086Z,100.00
2022-11-19T04:52:36.315Z,100.00
2022-11-19T04:55:06.539Z,100.00
2022-11-19T04:57:33.709Z,100.00
2022-11-19T05:00:00.743Z,100.00
2022-11-19T05:02:27.763Z,100.00
2022-11-19T05:04:54.880Z,100.00
2022-11-19T05:07:21.910Z,100.00
2022-11-19T05:09:48.894Z,100.00
2022-11-19T05:12:15.978Z,100.00
2022-11-19T05:14:43.043Z,100.00
2022-11-19T05:17:10.081Z,100.00
2022-11-19T05:19:37.104Z,100.00
2022-11-19T05:22:04.082Z,100.00
2022-11-19T05:24:41.138Z,100.00
2022-11-19T05:27:08.688Z,100.00
2022-11-19T05:29:35.778Z,100.00
2022-11-19T05:32:02.736Z,100.00
2022-11-19T05:34:29.797Z,100.00
2022-11-19T05:36:56.824Z,100.00
2022-11-19T05:39:24.457Z,100.00
2022-11-19T05:41:51.726Z,100.00
2022-11-19T05:44:18.759Z,100.00
2022-11-19T05:46:45.773Z,100.00
2022-11-19T05:49:12.820Z,100.00
2022-11-19T05:51:39.963Z,100.00
2022-11-19T05:54:07.010Z,100.00
2022-11-19T05:56:34.122Z,100.00
2022-11-19T05:59:01.152Z,100.00
2022-11-19T06:01:29.652Z,100.00
2022-11-19T06:03:56.753Z,100.00
2022-11-19T06:06:24.150Z,100.00
2022-11-19T06:08:51.367Z,100.00
2022-11-19T06:11:36.959Z,100.00
2022-11-19T06:14:04.307Z,100.00
2022-11-19T06:16:31.414Z,100.00
2022-11-19T06:18:58.531Z,100.00
2022-11-19T06:21:25.503Z,100.00
2022-11-19T06:23:52.493Z,100.00
2022-11-19T06:26:27.462Z,100.00
2022-11-19T06:28:55.251Z,100.00
2022-11-19T06:31:22.701Z,100.00
2022-11-19T06:33:50.411Z,100.00
2022-11-19T06:36:17.422Z,100.00
2022-11-19T06:38:44.569Z,100.00
2022-11-19T06:41:11.958Z,100.00
2022-11-19T06:43:38.919Z,100.00
2022-11-19T06:46:06.106Z,100.00
2022-11-19T06:48:33.160Z,100.00
2022-11-19T06:51:01.907Z,100.00
2022-11-19T06:53:29.536Z,100.00
2022-11-19T06:56:01.132Z,100.00
2022-11-19T06:58:29.468Z,100.00
2022-11-19T07:00:56.984Z,100.00
2022-11-19T07:03:24.902Z,100.00
2022-11-19T07:05:59.450Z,100.00
2022-11-19T07:08:26.864Z,100.00
2022-11-19T07:10:54.310Z,100.00
2022-11-19T07:13:21.360Z,100.00
2022-11-19T07:15:48.691Z,100.00
2022-11-19T07:18:15.968Z,100.00
2022-11-19T07:20:48.926Z,100.00
2022-11-19T07:23:16.144Z,100.00
2022-11-19T07:25:43.223Z,100.00
2022-11-19T07:28:10.309Z,100.00
2022-11-19T07:30:37.347Z,100.00
2022-11-19T07:33:04.342Z,100.00
2022-11-19T07:35:31.903Z,100.00
2022-11-19T07:37:58.898Z,100.00
2022-11-19T07:40:26.008Z,100.00
2022-11-19T07:42:53.473Z,100.00
2022-11-19T07:45:22.775Z,100.00
2022-11-19T07:47:49.829Z,100.00
2022-11-19T07:50:18.094Z,100.00
2022-11-19T07:52:45.191Z,100.00
2022-11-19T07:55:12.248Z,100.00
2022-11-19T07:57:39.260Z,100.00
2022-11-19T08:00:07.188Z,100.00
2022-11-19T08:02:40.060Z,100.00
2022-11-19T08:05:07.470Z,100.00
2022-11-19T08:07:34.460Z,100.00
2022-11-19T08:10:01.475Z,100.00
2022-11-19T08:12:29.500Z,100.00
2022-11-19T08:14:56.903Z,100.00
2022-11-19T08:17:42.399Z,100.00
2022-11-19T08:20:10.521Z,100.00
2022-11-19T08:22:37.528Z,100.00
2022-11-19T08:25:05.038Z,100.00
2022-11-19T08:27:32.445Z,100.00
2022-11-19T08:29:59.524Z,99.68
2022-11-19T08:32:26.467Z,97.07
2022-11-19T08:34:53.555Z,97.55
2022-11-19T08:37:20.601Z,98.36
2022-11-19T08:39:47.642Z,97.53
2022-11-19T08:42:33.238Z,96.52
2022-11-19T08:45:00.281Z,94.04
2022-11-19T08:47:27.198Z,94.57
2022-11-19T08:49:54.273Z,95.21
2022-11-19T08:52:21.306Z,95.07
2022-11-19T08:54:48.826Z,95.77
2022-11-19T08:57:17.245Z,94.95
2022-11-19T08:59:44.291Z,95.00
2022-11-19T09:02:11.580Z,91.95
2022-11-19T09:04:38.679Z,88.10
2022-11-19T09:07:05.733Z,89.56
2022-11-19T09:09:33.111Z,88.62
2022-11-19T09:12:00.189Z,83.97
2022-11-19T09:14:27.415Z,83.57
2022-11-19T09:16:54.349Z,85.70
2022-11-19T09:19:21.462Z,85.23
2022-11-19T09:21:49.127Z,84.45
2022-11-19T09:24:16.151Z,83.50
2022-11-19T09:26:43.197Z,83.79
2022-11-19T09:29:10.449Z,84.49
2022-11-19T09:31:37.631Z,83.50
2022-11-19T09:34:04.682Z,82.82
2022-11-19T09:36:31.745Z,82.86
2022-11-19T09:38:59.136Z,83.00
2022-11-19T09:41:41.496Z,81.61
2022-11-19T09:44:38.275Z,80.56
2022-11-19T09:47:59.351Z,80.08
2022-11-19T09:50:33.250Z,78.19
2022-11-19T09:53:07.532Z,78.64
2022-11-19T09:55:42.427Z,78.74
2022-11-19T09:58:33.822Z,79.22
2022-11-19T10:01:01.670Z,78.10
2022-11-19T10:03:33.184Z,79.35
2022-11-19T10:06:30.518Z,79.46
2022-11-19T10:09:53.201Z,78.27
2022-11-19T10:13:12.352Z,76.38
2022-11-19T10:48:49.222Z,68.27
2022-11-19T10:51:29.767Z,66.06
2022-11-19T10:53:57.892Z,65.25
2022-11-19T10:56:36.433Z,64.55
2022-11-19T10:59:19.350Z,65.00
2022-11-19T11:02:17.020Z,65.56
2022-11-19T11:05:12.202Z,64.15
2022-11-19T11:08:11.157Z,65.39
2022-11-19T11:10:44.921Z,66.59
2022-11-19T11:13:57.899Z,67.08
2022-11-19T11:16:38.728Z,65.02
2022-11-19T11:19:22.289Z,63.88
2022-11-19T11:21:57.794Z,63.16
2022-11-19T11:24:33.886Z,62.30
2022-11-19T11:27:21.763Z,62.56
2022-11-19T11:29:48.862Z,64.21
2022-11-19T11:32:30.837Z,65.25
2022-11-19T11:35:01.240Z,65.42
2022-11-19T11:37:33.621Z,66.79
2022-11-19T11:40:01.546Z,67.17
2022-11-19T11:42:29.697Z,67.57
2022-11-19T11:45:00.482Z,66.72
2022-11-19T11:47:31.263Z,67.81
2022-11-19T11:50:08.460Z,68.01
2022-11-19T11:52:48.425Z,67.64
2022-11-19T11:55:46.059Z,67.52
2022-11-19T11:58:45.287Z,67.44
2022-11-19T12:01:20.128Z,67.54
2022-11-19T12:03:58.700Z,66.35
2022-11-19T12:06:48.484Z,67.12
2022-11-19T12:09:43.545Z,67.95
2022-11-19T12:12:31.370Z,66.45
2022-11-19T12:15:26.034Z,66.28
2022-11-19T12:18:22.376Z,66.64
2022-11-19T12:21:21.134Z,66.93
2022-11-19T12:24:19.069Z,67.04
2022-11-19T12:27:42.163Z,67.03
2022-11-19T12:30:22.137Z,67.29
2022-11-19T12:33:23.577Z,67.59
2022-11-19T12:46:24.733Z,68.22
2022-11-19T12:49:47.146Z,68.37
2022-11-19T12:53:06.490Z,67.36
2022-11-19T12:56:19.325Z,67.75
2022-11-19T12:59:18.807Z,68.41
2022-11-19T13:01:50.795Z,67.80
2022-11-19T13:04:39.117Z,68.94
2022-11-19T13:07:13.187Z,69.46
2022-11-19T13:09:59.008Z,69.49
2022-11-19T13:12:35.559Z,69.65
2022-11-19T13:15:30.471Z,70.32
2022-11-19T13:18:02.414Z,70.79
2022-11-19T13:20:47.802Z,70.89
2022-11-19T13:23:29.332Z,71.76
2022-11-19T13:26:07.347Z,71.42
2022-11-19T13:28:51.298Z,71.81
2022-11-19T13:31:57.109Z,72.10
2022-11-19T13:34:52.834Z,72.83
2022-11-19T13:37:43.981Z,73.17
2022-11-19T13:40:31.127Z,73.88
2022-11-19T13:43:31.650Z,74.28
2022-11-19T13:46:26.428Z,74.64
2022-11-19T13:49:25.893Z,74.18
2022-11-19T13:51:58.766Z,74.85
2022-11-19T13:54:30.564Z,75.39
2022-11-19T13:56:58.621Z,75.51
2022-11-19T13:59:32.921Z,75.70
2022-11-19T14:02:46.917Z,75.89
2022-11-19T14:08:41.523Z,76.63
2022-11-19T14:11:47.596Z,76.72
2022-11-19T14:15:08.863Z,77.27
2022-11-19T14:18:19.802Z,78.41
2022-11-19T14:21:05.744Z,79.10
2022-11-19T14:24:07.195Z,78.63
2022-11-19T14:27:16.101Z,79.13
2022-11-19T14:30:06.835Z,79.58
2022-11-19T14:32:46.620Z,80.14
2022-11-19T14:35:36.433Z,81.84
2022-11-19T14:38:43.127Z,85.51
2022-11-19T14:41:28.908Z,86.22
2022-11-19T14:44:13.300Z,86.98
2022-11-19T14:46:48.746Z,87.47
2022-11-19T14:49:24.672Z,88.32
2022-11-19T14:51:54.596Z,89.16
2022-11-19T14:54:31.530Z,89.31
2022-11-19T14:57:05.711Z,89.83
2022-11-19T14:59:38.290Z,89.88
2022-11-19T15:02:39.927Z,90.24
2022-11-19T15:05:20.650Z,90.99
2022-11-19T15:07:56.254Z,90.35
2022-11-19T15:10:28.201Z,90.73
2022-11-19T15:13:22.058Z,91.59
2022-11-19T15:15:53.117Z,92.39
2022-11-19T15:18:49.214Z,93.90
2022-11-19T15:22:11.969Z,93.67
2022-11-19T15:25:27.362Z,93.80
2022-11-19T15:28:50.397Z,94.21
2022-11-19T15:31:41.355Z,94.19
2022-11-19T15:37:45.143Z,96.54
2022-11-19T15:40:20.645Z,96.73
2022-11-19T15:42:55.362Z,95.97
2022-11-19T15:45:25.048Z,96.04
2022-11-19T15:48:16.940Z,96.53
2022-11-19T15:50:45.574Z,97.39
2022-11-19T15:53:24.579Z,97.08
2022-11-19T15:56:03.097Z,96.12
2022-11-19T15:58:56.398Z,95.87
2022-11-19T16:01:23.740Z,98.19
2022-11-19T16:03:54.155Z,100.00
2022-11-19T16:06:27.791Z,100.00
2022-11-19T16:08:58.178Z,100.00
2022-11-19T16:11:47.352Z,100.00
2022-11-19T16:14:48.029Z,100.00
2022-11-19T16:17:41.663Z,100.00
2022-11-19T16:20:21.416Z,100.00
2022-11-19T16:23:10.695Z,100.00
2022-11-19T16:25:40.668Z,100.00
2022-11-19T16:28:13.047Z,100.00
2022-11-19T16:31:04.131Z,100.00
2022-11-19T16:33:32.735Z,100.00
2022-11-19T16:36:15.221Z,100.00
2022-11-19T16:38:51.261Z,100.00
2022-11-19T16:41:39.560Z,100.00
2022-11-19T16:44:11.588Z,100.00
2022-11-19T16:46:39.076Z,100.00
2022-11-19T16:49:14.581Z,100.00
2022-11-19T16:51:54.473Z,100.00
2022-11-19T16:54:45.443Z,100.00
2022-11-19T16:57:20.066Z,100.00
2022-11-19T16:59:53.574Z,100.00
2022-11-19T17:02:25.417Z,100.00
2022-11-19T17:04:55.676Z,100.00
2022-11-19T17:07:28.104Z,100.00
2022-11-19T17:10:31.718Z,100.00
2022-11-19T17:13:28.152Z,100.00
2022-11-19T17:15:55.352Z,100.00
2022-11-19T17:18:50.184Z,100.00
2022-11-19T17:21:30.075Z,100.00
2022-11-19T17:23:57.448Z,100.00
2022-11-19T17:26:27.618Z,100.00
2022-11-19T17:29:11.786Z,100.00
2022-11-19T17:31:47.385Z,100.00
2022-11-19T17:34:34.151Z,100.00
2022-11-19T17:37:01.219Z,100.00
2022-11-19T17:39:28.268Z,100.00
2022-11-19T17:42:14.503Z,100.00
2022-11-19T17:44:42.031Z,100.00
2022-11-19T17:47:23.082Z,100.00
2022-11-19T17:49:51.818Z,100.00
2022-11-19T17:52:25.894Z,100.00
2022-11-19T17:54:55.424Z,100.00
2022-11-19T17:57:22.558Z,100.00
2022-11-19T17:59:49.710Z,100.00
2022-11-19T18:02:18.817Z,100.00
2022-11-19T18:04:47.256Z,100.00
2022-11-19T18:07:14.782Z,100.00
2022-11-19T18:09:42.234Z,100.00
2022-11-19T18:12:16.828Z,100.00
2022-11-19T18:14:46.669Z,100.00
2022-11-19T18:17:15.366Z,100.00
2022-11-19T18:19:42.831Z,100.00
2022-11-19T18:22:19.855Z,100.00
2022-11-19T18:24:48.935Z,100.00
2022-11-19T18:27:16.556Z,100.00
2022-11-19T18:29:43.668Z,100.00
2022-11-19T18:32:17.134Z,100.00
2022-11-19T18:34:45.957Z,100.00
2022-11-19T18:37:13.609Z,100.00
2022-11-19T18:39:40.611Z,100.00
2022-11-19T18:42:10.738Z,100.00
2022-11-19T18:44:38.803Z,100.00
2022-11-19T18:47:12.588Z,100.00
2022-11-19T18:49:40.320Z,100.00
2022-11-19T18:52:11.353Z,100.00
2022-11-19T18:54:38.372Z,100.00
2022-11-19T18:57:05.325Z,100.00
2022-11-19T18:59:32.420Z,100.00
2022-11-19T19:01:59.468Z,100.00
2022-11-19T19:04:26.684Z,100.00
2022-11-19T19:06:53.939Z,100.00
2022-11-19T19:09:21.514Z,100.00
2022-11-19T19:12:13.000Z,100.00
2022-11-19T19:14:40.228Z,100.00
2022-11-19T19:17:07.235Z,100.00
2022-11-19T19:19:34.329Z,100.00
2022-11-19T19:22:01.414Z,100.00
2022-11-19T19:24:28.661Z,100.00
2022-11-19T19:26:55.786Z,100.00
2022-11-19T19:29:23.064Z,100.00
2022-11-19T19:31:50.279Z,100.00
2022-11-19T19:34:17.469Z,100.00
2022-11-19T19:36:47.677Z,100.00
2022-11-19T19:39:19.424Z,100.00
2022-11-19T19:41:46.733Z,100.00
2022-11-19T19:44:13.790Z,100.00
2022-11-19T19:46:40.972Z,100.00
2022-11-19T19:49:08.018Z,100.00
2022-11-19T19:51:35.167Z,100.00
2022-11-19T19:54:02.201Z,100.00
2022-11-19T19:56:31.727Z,100.00
2022-11-19T19:59:00.130Z,100.00
2022-11-19T20:01:32.235Z,100.00
2022-11-19T20:04:04.855Z,100.00
2022-11-19T20:06:32.516Z,100.00
2022-11-19T20:09:02.149Z,100.00
2022-11-19T20:11:32.735Z,100.00
2022-11-19T20:14:00.262Z,100.00
2022-11-19T20:16:29.868Z,100.00
2022-11-19T20:18:58.940Z,100.00
2022-11-19T20:21:36.444Z,100.00
2022-11-19T20:24:10.379Z,100.00
2022-11-19T20:26:40.191Z,100.00
2022-11-19T20:29:07.618Z,100.00
2022-11-19T20:31:35.135Z,100.00
2022-11-19T20:34:04.065Z,100.00
2022-11-19T20:36:34.207Z,100.00
2022-11-19T20:39:01.604Z,100.00
2022-11-19T20:41:47.663Z,100.00
2022-11-19T20:44:22.307Z,100.00
2022-11-19T20:46:58.495Z,100.00
2022-11-19T20:49:27.794Z,100.00
2022-11-19T20:51:55.697Z,100.00
2022-11-19T20:54:23.950Z,100.00
2022-11-19T20:56:52.617Z,100.00
2022-11-19T20:59:20.642Z,100.00
2022-11-19T21:01:51.761Z,100.00
2022-11-19T21:04:20.665Z,100.00
2022-11-19T21:06:49.986Z,100.00
2022-11-19T21:09:17.487Z,100.00
2022-11-19T21:11:44.563Z,100.00
2022-11-19T21:14:12.238Z,100.00
2022-11-19T21:16:39.375Z,100.00
2022-11-19T21:19:06.372Z,100.00
2022-11-19T21:21:33.497Z,100.00
2022-11-19T21:24:00.517Z,100.00
2022-11-19T21:26:28.315Z,100.00
2022-11-19T21:28:57.864Z,100.00
2022-11-19T21:31:39.910Z,100.00
2022-11-19T21:34:18.532Z,100.00
2022-11-19T21:36:46.831Z,100.00
2022-11-19T21:39:16.524Z,100.00
2022-11-19T21:41:44.527Z,100.00
2022-11-19T21:44:13.274Z,100.00
2022-11-19T21:46:43.690Z,100.00
2022-11-19T21:49:10.812Z,100.00
2022-11-19T21:51:37.872Z,100.00
2022-11-19T21:54:05.193Z,100.00
2022-11-19T21:56:38.278Z,100.00
2022-11-19T21:59:07.212Z,100.00
2022-11-19T22:01:34.828Z,100.00
2022-11-19T22:04:01.874Z,100.00
2022-11-19T22:06:30.236Z,100.00
2022-11-19T22:08:57.367Z,100.00
2022-11-19T22:11:30.393Z,100.00
2022-11-19T22:14:05.972Z,100.00
2022-11-19T22:16:36.051Z,100.00
2022-11-19T22:19:03.220Z,100.00
2022-11-19T22:21:30.266Z,100.00
2022-11-19T22:26:38.438Z,100.00
2022-11-19T22:29:05.492Z,100.00
2022-11-19T22:31:32.516Z,99.21
2022-11-19T22:33:59.744Z,96.80
2022-11-19T22:36:26.680Z,95.62
2022-11-19T22:38:53.769Z,93.59
2022-11-19T22:41:21.954Z,92.24
2022-11-19T22:43:49.832Z,90.55
2022-11-19T22:46:17.917Z,89.39
2022-11-19T22:48:45.104Z,88.29
2022-11-19T22:51:17.816Z,87.00
2022-11-19T22:53:45.138Z,86.01
2022-11-19T22:56:14.022Z,84.37
2022-11-19T22:58:41.680Z,82.94
2022-11-19T23:01:16.713Z,82.60
2022-11-19T23:03:44.162Z,81.62
2022-11-19T23:06:11.324Z,81.55
2022-11-19T23:08:38.370Z,79.89
2022-11-19T23:11:06.946Z,79.57
2022-11-19T23:13:35.896Z,78.65
2022-11-19T23:16:18.323Z,77.06
2022-11-19T23:18:52.905Z,76.12
2022-11-19T23:21:25.581Z,75.18
2022-11-19T23:23:53.057Z,74.22
2022-11-19T23:26:22.314Z,74.69
2022-11-19T23:28:50.020Z,74.71
2022-11-19T23:31:19.443Z,74.57
2022-11-19T23:33:47.108Z,74.36
2022-11-19T23:36:16.437Z,74.17
2022-11-19T23:38:43.695Z,74.09
2022-11-19T23:41:12.959Z,73.64
2022-11-19T23:43:40.553Z,74.19
2022-11-19T23:46:10.459Z,73.55
2022-11-19T23:48:39.503Z,73.74
2022-11-19T23:51:12.280Z,73.29
2022-11-19T23:53:39.198Z,72.72
2022-11-19T23:56:06.906Z,72.28
2022-11-19T23:58:34.842Z,72.09
